sensor_id;sensor_type;location;lat;lon;timestamp;P1;durP1;ratioP1;P2;durP2;ratioP2
13897;SDS011;7019;50.766;4.474;2023-01-24T00:01:13;41.57;;;26.07;;
13897;SDS011;7019;50.766;4.474;2023-01-24T00:03:42;39.13;;;26.23;;
13897;SDS011;7019;50.766;4.474;2023-01-24T00:06:09;36.00;;;25.37;;
13897;SDS011;7019;50.766;4.474;2023-01-24T00:08:36;35.53;;;25.40;;
13897;SDS011;7019;50.766;4.474;2023-01-24T00:11:04;37.13;;;26.10;;
13897;SDS011;7019;50.766;4.474;2023-01-24T00:13:32;37.70;;;26.37;;
13897;SDS011;7019;50.766;4.474;2023-01-24T00:16:01;35.70;;;26.20;;
13897;SDS011;7019;50.766;4.474;2023-01-24T00:18:29;38.77;;;26.70;;
13897;SDS011;7019;50.766;4.474;2023-01-24T00:21:02;37.50;;;26.97;;
13897;SDS011;7019;50.766;4.474;2023-01-24T00:23:31;39.00;;;26.57;;
13897;SDS011;7019;50.766;4.474;2023-01-24T00:25:58;41.30;;;26.27;;
13897;SDS011;7019;50.766;4.474;2023-01-24T00:28:25;41.20;;;28.27;;
13897;SDS011;7019;50.766;4.474;2023-01-24T00:30:52;41.77;;;27.80;;
13897;SDS011;7019;50.766;4.474;2023-01-24T00:33:19;40.83;;;26.67;;
13897;SDS011;7019;50.766;4.474;2023-01-24T00:35:46;42.13;;;27.37;;
13897;SDS011;7019;50.766;4.474;2023-01-24T00:38:16;42.60;;;28.03;;
13897;SDS011;7019;50.766;4.474;2023-01-24T00:40:43;43.07;;;29.93;;
13897;SDS011;7019;50.766;4.474;2023-01-24T00:43:11;45.47;;;31.07;;
13897;SDS011;7019;50.766;4.474;2023-01-24T00:45:38;44.07;;;31.17;;
13897;SDS011;7019;50.766;4.474;2023-01-24T00:48:06;48.83;;;32.00;;
13897;SDS011;7019;50.766;4.474;2023-01-24T00:50:35;47.17;;;31.57;;
13897;SDS011;7019;50.766;4.474;2023-01-24T00:53:02;44.40;;;30.50;;
13897;SDS011;7019;50.766;4.474;2023-01-24T00:55:31;44.80;;;30.37;;
13897;SDS011;7019;50.766;4.474;2023-01-24T00:57:58;46.07;;;30.60;;
13897;SDS011;7019;50.766;4.474;2023-01-24T01:00:25;44.00;;;29.67;;
13897;SDS011;7019;50.766;4.474;2023-01-24T01:02:53;46.67;;;31.03;;
13897;SDS011;7019;50.766;4.474;2023-01-24T01:05:20;46.67;;;31.57;;
13897;SDS011;7019;50.766;4.474;2023-01-24T01:07:47;43.57;;;30.97;;
13897;SDS011;7019;50.766;4.474;2023-01-24T01:10:14;43.23;;;30.77;;
13897;SDS011;7019;50.766;4.474;2023-01-24T01:12:43;48.27;;;32.10;;
13897;SDS011;7019;50.766;4.474;2023-01-24T01:15:10;49.60;;;31.90;;
13897;SDS011;7019;50.766;4.474;2023-01-24T01:17:37;49.17;;;32.67;;
13897;SDS011;7019;50.766;4.474;2023-01-24T01:20:05;47.33;;;31.30;;
13897;SDS011;7019;50.766;4.474;2023-01-24T01:22:33;47.80;;;33.17;;
13897;SDS011;7019;50.766;4.474;2023-01-24T01:25:00;51.03;;;33.37;;
13897;SDS011;7019;50.766;4.474;2023-01-24T01:27:27;48.00;;;32.53;;
13897;SDS011;7019;50.766;4.474;2023-01-24T01:29:56;49.57;;;32.57;;
13897;SDS011;7019;50.766;4.474;2023-01-24T01:32:23;47.27;;;30.77;;
13897;SDS011;7019;50.766;4.474;2023-01-24T01:34:50;47.93;;;30.87;;
13897;SDS011;7019;50.766;4.474;2023-01-24T01:37:17;44.07;;;29.23;;
13897;SDS011;7019;50.766;4.474;2023-01-24T01:39:44;38.20;;;27.83;;
13897;SDS011;7019;50.766;4.474;2023-01-24T01:42:11;41.50;;;27.83;;
13897;SDS011;7019;50.766;4.474;2023-01-24T01:44:40;41.33;;;29.13;;
13897;SDS011;7019;50.766;4.474;2023-01-24T01:47:17;42.23;;;28.17;;
13897;SDS011;7019;50.766;4.474;2023-01-24T01:49:51;39.67;;;27.40;;
13897;SDS011;7019;50.766;4.474;2023-01-24T01:52:22;41.23;;;27.70;;
13897;SDS011;7019;50.766;4.474;2023-01-24T01:54:51;44.77;;;30.50;;
13897;SDS011;7019;50.766;4.474;2023-01-24T01:57:23;42.00;;;28.33;;
13897;SDS011;7019;50.766;4.474;2023-01-24T01:59:55;44.47;;;28.53;;
13897;SDS011;7019;50.766;4.474;2023-01-24T02:02:25;41.00;;;28.63;;
13897;SDS011;7019;50.766;4.474;2023-01-24T02:04:54;40.77;;;28.10;;
13897;SDS011;7019;50.766;4.474;2023-01-24T02:07:24;45.77;;;29.77;;
13897;SDS011;7019;50.766;4.474;2023-01-24T02:09:56;43.17;;;29.13;;
13897;SDS011;7019;50.766;4.474;2023-01-24T02:12:25;44.60;;;29.03;;
13897;SDS011;7019;50.766;4.474;2023-01-24T02:14:56;45.30;;;30.53;;
13897;SDS011;7019;50.766;4.474;2023-01-24T02:17:41;42.97;;;29.70;;
13897;SDS011;7019;50.766;4.474;2023-01-24T02:20:11;42.60;;;28.13;;
13897;SDS011;7019;50.766;4.474;2023-01-24T02:22:49;45.53;;;29.47;;
13897;SDS011;7019;50.766;4.474;2023-01-24T02:25:26;43.87;;;28.07;;
13897;SDS011;7019;50.766;4.474;2023-01-24T02:27:59;41.43;;;28.33;;
13897;SDS011;7019;50.766;4.474;2023-01-24T02:30:27;37.40;;;26.33;;
13897;SDS011;7019;50.766;4.474;2023-01-24T02:32:55;39.80;;;27.47;;
13897;SDS011;7019;50.766;4.474;2023-01-24T02:35:24;38.30;;;27.67;;
13897;SDS011;7019;50.766;4.474;2023-01-24T02:37:53;38.13;;;25.90;;
13897;SDS011;7019;50.766;4.474;2023-01-24T02:40:22;41.23;;;29.47;;
13897;SDS011;7019;50.766;4.474;2023-01-24T02:42:50;39.57;;;27.27;;
13897;SDS011;7019;50.766;4.474;2023-01-24T02:45:21;36.10;;;26.60;;
13897;SDS011;7019;50.766;4.474;2023-01-24T02:47:52;37.60;;;27.23;;
13897;SDS011;7019;50.766;4.474;2023-01-24T02:50:21;30.73;;;21.03;;
13897;SDS011;7019;50.766;4.474;2023-01-24T02:52:50;38.87;;;27.20;;
13897;SDS011;7019;50.766;4.474;2023-01-24T02:55:35;39.43;;;27.40;;
13897;SDS011;7019;50.766;4.474;2023-01-24T02:58:23;37.33;;;25.00;;
13897;SDS011;7019;50.766;4.474;2023-01-24T03:00:51;41.77;;;26.17;;
13897;SDS011;7019;50.766;4.474;2023-01-24T03:03:18;39.00;;;26.57;;
13897;SDS011;7019;50.766;4.474;2023-01-24T03:05:45;42.27;;;27.97;;
13897;SDS011;7019;50.766;4.474;2023-01-24T03:08:22;41.40;;;28.93;;
13897;SDS011;7019;50.766;4.474;2023-01-24T03:10:50;44.30;;;29.07;;
13897;SDS011;7019;50.766;4.474;2023-01-24T03:13:18;44.60;;;29.17;;
13897;SDS011;7019;50.766;4.474;2023-01-24T03:16:04;41.07;;;27.63;;
13897;SDS011;7019;50.766;4.474;2023-01-24T03:18:50;42.87;;;28.40;;
13897;SDS011;7019;50.766;4.474;2023-01-24T03:21:35;38.87;;;27.40;;
13897;SDS011;7019;50.766;4.474;2023-01-24T03:24:20;43.27;;;27.50;;
13897;SDS011;7019;50.766;4.474;2023-01-24T03:27:04;40.20;;;27.83;;
13897;SDS011;7019;50.766;4.474;2023-01-24T03:29:49;41.33;;;29.77;;
13897;SDS011;7019;50.766;4.474;2023-01-24T03:32:35;42.03;;;28.40;;
13897;SDS011;7019;50.766;4.474;2023-01-24T03:35:19;44.03;;;29.77;;
13897;SDS011;7019;50.766;4.474;2023-01-24T03:37:46;41.87;;;29.03;;
13897;SDS011;7019;50.766;4.474;2023-01-24T03:40:31;41.33;;;27.70;;
13897;SDS011;7019;50.766;4.474;2023-01-24T03:42:58;41.97;;;28.07;;
13897;SDS011;7019;50.766;4.474;2023-01-24T03:45:26;42.47;;;29.43;;
13897;SDS011;7019;50.766;4.474;2023-01-24T03:47:56;44.20;;;29.47;;
13897;SDS011;7019;50.766;4.474;2023-01-24T03:50:25;40.03;;;27.83;;
13897;SDS011;7019;50.766;4.474;2023-01-24T03:53:10;41.80;;;29.37;;
13897;SDS011;7019;50.766;4.474;2023-01-24T03:55:38;45.03;;;29.10;;
13897;SDS011;7019;50.766;4.474;2023-01-24T03:58:06;45.70;;;31.57;;
13897;SDS011;7019;50.766;4.474;2023-01-24T04:00:34;42.57;;;29.13;;
13897;SDS011;7019;50.766;4.474;2023-01-24T04:03:03;43.17;;;29.30;;
13897;SDS011;7019;50.766;4.474;2023-01-24T04:05:32;39.50;;;26.83;;
13897;SDS011;7019;50.766;4.474;2023-01-24T04:07:59;40.93;;;26.43;;
13897;SDS011;7019;50.766;4.474;2023-01-24T04:10:26;36.80;;;24.23;;
13897;SDS011;7019;50.766;4.474;2023-01-24T04:12:53;38.00;;;25.83;;
13897;SDS011;7019;50.766;4.474;2023-01-24T04:15:21;38.33;;;26.83;;
13897;SDS011;7019;50.766;4.474;2023-01-24T04:17:52;42.07;;;27.57;;
13897;SDS011;7019;50.766;4.474;2023-01-24T04:20:22;43.00;;;29.30;;
13897;SDS011;7019;50.766;4.474;2023-01-24T04:22:50;42.40;;;29.47;;
13897;SDS011;7019;50.766;4.474;2023-01-24T04:25:18;42.07;;;27.67;;
13897;SDS011;7019;50.766;4.474;2023-01-24T04:27:45;40.77;;;27.93;;
13897;SDS011;7019;50.766;4.474;2023-01-24T04:30:13;39.67;;;27.23;;
13897;SDS011;7019;50.766;4.474;2023-01-24T04:32:41;41.63;;;27.97;;
13897;SDS011;7019;50.766;4.474;2023-01-24T04:35:09;41.93;;;26.80;;
13897;SDS011;7019;50.766;4.474;2023-01-24T04:37:43;39.67;;;27.20;;
13897;SDS011;7019;50.766;4.474;2023-01-24T04:40:10;39.60;;;27.60;;
13897;SDS011;7019;50.766;4.474;2023-01-24T04:42:40;40.60;;;27.50;;
13897;SDS011;7019;50.766;4.474;2023-01-24T04:45:07;42.07;;;27.90;;
13897;SDS011;7019;50.766;4.474;2023-01-24T04:47:36;41.70;;;29.53;;
13897;SDS011;7019;50.766;4.474;2023-01-24T04:50:03;45.30;;;30.37;;
13897;SDS011;7019;50.766;4.474;2023-01-24T04:52:31;45.37;;;29.63;;
13897;SDS011;7019;50.766;4.474;2023-01-24T04:55:00;42.67;;;29.00;;
13897;SDS011;7019;50.766;4.474;2023-01-24T04:57:27;44.57;;;28.17;;
13897;SDS011;7019;50.766;4.474;2023-01-24T04:59:54;41.63;;;27.43;;
13897;SDS011;7019;50.766;4.474;2023-01-24T05:02:21;42.40;;;29.90;;
13897;SDS011;7019;50.766;4.474;2023-01-24T05:04:48;39.00;;;28.17;;
13897;SDS011;7019;50.766;4.474;2023-01-24T05:07:15;42.67;;;28.57;;
13897;SDS011;7019;50.766;4.474;2023-01-24T05:09:42;43.67;;;30.03;;
13897;SDS011;7019;50.766;4.474;2023-01-24T05:12:11;43.13;;;30.00;;
13897;SDS011;7019;50.766;4.474;2023-01-24T05:14:38;48.57;;;32.83;;
13897;SDS011;7019;50.766;4.474;2023-01-24T05:17:05;44.13;;;30.07;;
13897;SDS011;7019;50.766;4.474;2023-01-24T05:19:32;44.63;;;29.97;;
13897;SDS011;7019;50.766;4.474;2023-01-24T05:21:59;42.27;;;29.03;;
13897;SDS011;7019;50.766;4.474;2023-01-24T05:24:26;42.57;;;29.97;;
13897;SDS011;7019;50.766;4.474;2023-01-24T05:26:53;43.70;;;30.10;;
13897;SDS011;7019;50.766;4.474;2023-01-24T05:29:22;49.80;;;31.77;;
13897;SDS011;7019;50.766;4.474;2023-01-24T05:31:49;41.47;;;29.37;;
13897;SDS011;7019;50.766;4.474;2023-01-24T05:34:16;43.60;;;29.03;;
13897;SDS011;7019;50.766;4.474;2023-01-24T05:36:43;48.27;;;29.53;;
13897;SDS011;7019;50.766;4.474;2023-01-24T05:39:10;44.30;;;30.43;;
13897;SDS011;7019;50.766;4.474;2023-01-24T05:41:37;44.60;;;30.83;;
13897;SDS011;7019;50.766;4.474;2023-01-24T05:44:04;44.00;;;29.37;;
13897;SDS011;7019;50.766;4.474;2023-01-24T05:46:32;44.73;;;28.67;;
13897;SDS011;7019;50.766;4.474;2023-01-24T05:48:59;43.07;;;29.10;;
13897;SDS011;7019;50.766;4.474;2023-01-24T05:51:27;40.53;;;27.63;;
13897;SDS011;7019;50.766;4.474;2023-01-24T05:53:54;46.73;;;31.90;;
13897;SDS011;7019;50.766;4.474;2023-01-24T05:56:21;43.50;;;30.83;;
13897;SDS011;7019;50.766;4.474;2023-01-24T05:58:52;41.37;;;29.43;;
13897;SDS011;7019;50.766;4.474;2023-01-24T06:01:20;44.43;;;29.53;;
13897;SDS011;7019;50.766;4.474;2023-01-24T06:03:50;44.77;;;30.40;;
13897;SDS011;7019;50.766;4.474;2023-01-24T06:06:19;44.83;;;29.53;;
13897;SDS011;7019;50.766;4.474;2023-01-24T06:08:47;43.10;;;29.90;;
13897;SDS011;7019;50.766;4.474;2023-01-24T06:11:15;40.97;;;29.40;;
13897;SDS011;7019;50.766;4.474;2023-01-24T06:13:43;41.57;;;29.17;;
13897;SDS011;7019;50.766;4.474;2023-01-24T06:16:12;42.27;;;29.93;;
13897;SDS011;7019;50.766;4.474;2023-01-24T06:18:41;44.53;;;29.50;;
13897;SDS011;7019;50.766;4.474;2023-01-24T06:21:13;45.97;;;30.67;;
13897;SDS011;7019;50.766;4.474;2023-01-24T06:23:50;45.73;;;30.73;;
13897;SDS011;7019;50.766;4.474;2023-01-24T06:26:17;47.13;;;31.83;;
13897;SDS011;7019;50.766;4.474;2023-01-24T06:28:45;48.30;;;32.17;;
13897;SDS011;7019;50.766;4.474;2023-01-24T06:31:16;47.77;;;32.03;;
13897;SDS011;7019;50.766;4.474;2023-01-24T06:34:00;47.60;;;31.93;;
13897;SDS011;7019;50.766;4.474;2023-01-24T06:36:51;48.83;;;30.73;;
13897;SDS011;7019;50.766;4.474;2023-01-24T06:39:30;49.67;;;31.47;;
13897;SDS011;7019;50.766;4.474;2023-01-24T06:41:59;47.77;;;33.40;;
13897;SDS011;7019;50.766;4.474;2023-01-24T06:44:26;45.13;;;29.77;;
13897;SDS011;7019;50.766;4.474;2023-01-24T06:46:54;43.37;;;31.17;;
13897;SDS011;7019;50.766;4.474;2023-01-24T06:49:21;48.67;;;31.87;;
13897;SDS011;7019;50.766;4.474;2023-01-24T06:51:48;52.73;;;36.27;;
13897;SDS011;7019;50.766;4.474;2023-01-24T06:54:17;45.40;;;32.03;;
13897;SDS011;7019;50.766;4.474;2023-01-24T06:56:45;51.43;;;33.93;;
13897;SDS011;7019;50.766;4.474;2023-01-24T06:59:12;44.40;;;30.87;;
13897;SDS011;7019;50.766;4.474;2023-01-24T07:01:39;45.53;;;31.60;;
13897;SDS011;7019;50.766;4.474;2023-01-24T07:04:06;47.83;;;31.83;;
13897;SDS011;7019;50.766;4.474;2023-01-24T07:06:33;44.47;;;30.80;;
13897;SDS011;7019;50.766;4.474;2023-01-24T07:09:01;45.57;;;31.17;;
13897;SDS011;7019;50.766;4.474;2023-01-24T07:11:28;47.67;;;31.37;;
13897;SDS011;7019;50.766;4.474;2023-01-24T07:13:55;47.07;;;30.97;;
13897;SDS011;7019;50.766;4.474;2023-01-24T07:16:23;51.33;;;31.40;;
13897;SDS011;7019;50.766;4.474;2023-01-24T07:18:50;47.50;;;31.80;;
13897;SDS011;7019;50.766;4.474;2023-01-24T07:21:18;46.90;;;32.83;;
13897;SDS011;7019;50.766;4.474;2023-01-24T07:23:46;42.03;;;30.00;;
13897;SDS011;7019;50.766;4.474;2023-01-24T07:26:16;44.80;;;30.67;;
13897;SDS011;7019;50.766;4.474;2023-01-24T07:28:43;44.73;;;30.10;;
13897;SDS011;7019;50.766;4.474;2023-01-24T07:31:11;43.50;;;30.37;;
13897;SDS011;7019;50.766;4.474;2023-01-24T07:33:40;47.23;;;30.90;;
13897;SDS011;7019;50.766;4.474;2023-01-24T07:36:11;46.17;;;31.50;;
13897;SDS011;7019;50.766;4.474;2023-01-24T07:38:40;48.37;;;32.03;;
13897;SDS011;7019;50.766;4.474;2023-01-24T07:41:07;49.83;;;33.03;;
13897;SDS011;7019;50.766;4.474;2023-01-24T07:43:36;47.80;;;31.03;;
13897;SDS011;7019;50.766;4.474;2023-01-24T07:46:04;48.50;;;32.70;;
13897;SDS011;7019;50.766;4.474;2023-01-24T07:48:31;44.93;;;31.80;;
13897;SDS011;7019;50.766;4.474;2023-01-24T07:50:58;48.20;;;31.93;;
13897;SDS011;7019;50.766;4.474;2023-01-24T07:53:26;43.43;;;30.40;;
13897;SDS011;7019;50.766;4.474;2023-01-24T07:55:53;43.87;;;29.60;;
13897;SDS011;7019;50.766;4.474;2023-01-24T07:58:20;41.57;;;28.77;;
13897;SDS011;7019;50.766;4.474;2023-01-24T08:00:49;40.53;;;27.93;;
13897;SDS011;7019;50.766;4.474;2023-01-24T08:03:16;42.73;;;29.83;;
13897;SDS011;7019;50.766;4.474;2023-01-24T08:05:44;40.47;;;27.87;;
13897;SDS011;7019;50.766;4.474;2023-01-24T08:08:11;35.67;;;25.73;;
13897;SDS011;7019;50.766;4.474;2023-01-24T08:10:38;37.40;;;25.93;;
13897;SDS011;7019;50.766;4.474;2023-01-24T08:13:05;35.70;;;25.23;;
13897;SDS011;7019;50.766;4.474;2023-01-24T08:15:33;33.27;;;23.13;;
13897;SDS011;7019;50.766;4.474;2023-01-24T08:18:02;33.57;;;23.83;;
13897;SDS011;7019;50.766;4.474;2023-01-24T08:20:29;31.80;;;22.70;;
13897;SDS011;7019;50.766;4.474;2023-01-24T08:22:57;28.07;;;21.73;;
13897;SDS011;7019;50.766;4.474;2023-01-24T08:25:24;27.73;;;21.43;;
13897;SDS011;7019;50.766;4.474;2023-01-24T08:27:52;32.27;;;23.63;;
13897;SDS011;7019;50.766;4.474;2023-01-24T08:30:19;32.63;;;22.53;;
13897;SDS011;7019;50.766;4.474;2023-01-24T08:32:46;29.53;;;21.97;;
13897;SDS011;7019;50.766;4.474;2023-01-24T08:35:15;30.77;;;23.10;;
13897;SDS011;7019;50.766;4.474;2023-01-24T08:37:43;31.47;;;23.23;;
13897;SDS011;7019;50.766;4.474;2023-01-24T08:40:10;32.30;;;23.43;;
13897;SDS011;7019;50.766;4.474;2023-01-24T08:42:38;32.90;;;22.87;;
13897;SDS011;7019;50.766;4.474;2023-01-24T08:45:05;33.50;;;25.10;;
13897;SDS011;7019;50.766;4.474;2023-01-24T08:47:33;32.70;;;24.33;;
13897;SDS011;7019;50.766;4.474;2023-01-24T08:50:00;34.67;;;24.70;;
13897;SDS011;7019;50.766;4.474;2023-01-24T08:52:29;39.57;;;24.87;;
13897;SDS011;7019;50.766;4.474;2023-01-24T08:54:56;31.43;;;23.80;;
13897;SDS011;7019;50.766;4.474;2023-01-24T08:57:23;31.47;;;24.13;;
13897;SDS011;7019;50.766;4.474;2023-01-24T08:59:50;31.67;;;23.80;;
13897;SDS011;7019;50.766;4.474;2023-01-24T09:02:18;31.53;;;22.17;;
13897;SDS011;7019;50.766;4.474;2023-01-24T09:04:45;33.50;;;23.67;;
13897;SDS011;7019;50.766;4.474;2023-01-24T09:07:12;28.77;;;22.43;;
13897;SDS011;7019;50.766;4.474;2023-01-24T09:09:41;31.40;;;22.63;;
13897;SDS011;7019;50.766;4.474;2023-01-24T09:12:08;31.07;;;23.43;;
13897;SDS011;7019;50.766;4.474;2023-01-24T09:14:35;35.97;;;25.40;;
13897;SDS011;7019;50.766;4.474;2023-01-24T09:17:02;31.57;;;24.13;;
13897;SDS011;7019;50.766;4.474;2023-01-24T09:19:29;40.63;;;26.27;;
13897;SDS011;7019;50.766;4.474;2023-01-24T09:21:56;34.90;;;25.50;;
13897;SDS011;7019;50.766;4.474;2023-01-24T09:24:23;31.07;;;22.90;;
13897;SDS011;7019;50.766;4.474;2023-01-24T09:26:52;36.37;;;25.60;;
13897;SDS011;7019;50.766;4.474;2023-01-24T09:29:19;35.77;;;25.77;;
13897;SDS011;7019;50.766;4.474;2023-01-24T09:31:46;35.77;;;26.13;;
13897;SDS011;7019;50.766;4.474;2023-01-24T09:34:14;35.10;;;23.60;;
13897;SDS011;7019;50.766;4.474;2023-01-24T09:36:42;36.53;;;26.33;;
13897;SDS011;7019;50.766;4.474;2023-01-24T09:39:09;35.00;;;25.00;;
13897;SDS011;7019;50.766;4.474;2023-01-24T09:41:39;34.53;;;25.80;;
13897;SDS011;7019;50.766;4.474;2023-01-24T09:44:19;31.37;;;25.13;;
13897;SDS011;7019;50.766;4.474;2023-01-24T09:46:52;32.87;;;25.13;;
13897;SDS011;7019;50.766;4.474;2023-01-24T09:49:22;34.40;;;25.37;;
13897;SDS011;7019;50.766;4.474;2023-01-24T09:51:56;32.33;;;23.57;;
13897;SDS011;7019;50.766;4.474;2023-01-24T09:54:27;26.87;;;21.87;;
13897;SDS011;7019;50.766;4.474;2023-01-24T09:56:57;32.47;;;23.93;;
13897;SDS011;7019;50.766;4.474;2023-01-24T09:59:29;30.97;;;23.20;;
13897;SDS011;7019;50.766;4.474;2023-01-24T10:02:05;30.60;;;23.67;;
13897;SDS011;7019;50.766;4.474;2023-01-24T10:04:41;29.47;;;22.23;;
13897;SDS011;7019;50.766;4.474;2023-01-24T10:07:15;30.67;;;22.73;;
13897;SDS011;7019;50.766;4.474;2023-01-24T10:09:59;29.30;;;22.57;;
13897;SDS011;7019;50.766;4.474;2023-01-24T10:12:37;31.83;;;23.27;;
13897;SDS011;7019;50.766;4.474;2023-01-24T10:15:19;33.43;;;22.87;;
13897;SDS011;7019;50.766;4.474;2023-01-24T10:18:00;28.20;;;22.83;;
13897;SDS011;7019;50.766;4.474;2023-01-24T10:20:43;33.00;;;24.43;;
13897;SDS011;7019;50.766;4.474;2023-01-24T10:23:24;29.83;;;22.43;;
13897;SDS011;7019;50.766;4.474;2023-01-24T10:25:53;32.90;;;23.97;;
13897;SDS011;7019;50.766;4.474;2023-01-24T10:28:24;30.90;;;24.30;;
13897;SDS011;7019;50.766;4.474;2023-01-24T10:31:05;28.67;;;22.43;;
13897;SDS011;7019;50.766;4.474;2023-01-24T10:33:40;29.10;;;22.30;;
13897;SDS011;7019;50.766;4.474;2023-01-24T10:36:13;30.03;;;23.20;;
13897;SDS011;7019;50.766;4.474;2023-01-24T10:38:45;32.57;;;23.70;;
13897;SDS011;7019;50.766;4.474;2023-01-24T10:41:19;27.93;;;22.20;;
13897;SDS011;7019;50.766;4.474;2023-01-24T10:43:55;30.80;;;22.80;;
13897;SDS011;7019;50.766;4.474;2023-01-24T10:49:24;31.67;;;23.50;;
13897;SDS011;7019;50.766;4.474;2023-01-24T10:54:43;33.33;;;24.10;;
13897;SDS011;7019;50.766;4.474;2023-01-24T10:57:15;31.70;;;23.17;;
13897;SDS011;7019;50.766;4.474;2023-01-24T10:59:54;32.80;;;22.67;;
13897;SDS011;7019;50.766;4.474;2023-01-24T11:02:23;29.63;;;22.50;;
13897;SDS011;7019;50.766;4.474;2023-01-24T11:04:58;31.13;;;22.23;;
13897;SDS011;7019;50.766;4.474;2023-01-24T11:07:26;31.50;;;22.37;;
13897;SDS011;7019;50.766;4.474;2023-01-24T11:09:58;30.67;;;22.77;;
13897;SDS011;7019;50.766;4.474;2023-01-24T11:12:26;30.37;;;22.47;;
13897;SDS011;7019;50.766;4.474;2023-01-24T11:14:54;33.77;;;24.90;;
13897;SDS011;7019;50.766;4.474;2023-01-24T11:17:32;29.47;;;22.70;;
13897;SDS011;7019;50.766;4.474;2023-01-24T11:20:04;30.50;;;22.50;;
13897;SDS011;7019;50.766;4.474;2023-01-24T11:22:49;27.87;;;21.17;;
13897;SDS011;7019;50.766;4.474;2023-01-24T11:25:17;28.77;;;20.90;;
13897;SDS011;7019;50.766;4.474;2023-01-24T11:27:45;25.03;;;19.87;;
13897;SDS011;7019;50.766;4.474;2023-01-24T11:30:16;27.97;;;20.77;;
13897;SDS011;7019;50.766;4.474;2023-01-24T11:32:50;26.20;;;20.90;;
13897;SDS011;7019;50.766;4.474;2023-01-24T11:35:28;25.50;;;19.87;;
13897;SDS011;7019;50.766;4.474;2023-01-24T11:38:03;25.73;;;21.17;;
13897;SDS011;7019;50.766;4.474;2023-01-24T11:40:42;23.67;;;19.77;;
13897;SDS011;7019;50.766;4.474;2023-01-24T11:43:20;21.17;;;17.67;;
13897;SDS011;7019;50.766;4.474;2023-01-24T11:46:02;23.83;;;18.30;;
13897;SDS011;7019;50.766;4.474;2023-01-24T11:48:43;24.47;;;18.10;;
13897;SDS011;7019;50.766;4.474;2023-01-24T11:51:18;21.07;;;17.47;;
13897;SDS011;7019;50.766;4.474;2023-01-24T11:53:59;26.30;;;18.37;;
13897;SDS011;7019;50.766;4.474;2023-01-24T11:56:52;23.10;;;16.93;;
13897;SDS011;7019;50.766;4.474;2023-01-24T11:59:32;23.70;;;16.83;;
13897;SDS011;7019;50.766;4.474;2023-01-24T12:02:23;22.43;;;17.87;;
13897;SDS011;7019;50.766;4.474;2023-01-24T12:05:16;25.40;;;17.90;;
13897;SDS011;7019;50.766;4.474;2023-01-24T12:07:56;21.60;;;17.70;;
13897;SDS011;7019;50.766;4.474;2023-01-24T12:10:42;23.47;;;18.50;;
13897;SDS011;7019;50.766;4.474;2023-01-24T12:13:22;26.07;;;19.60;;
13897;SDS011;7019;50.766;4.474;2023-01-24T12:16:01;26.57;;;20.47;;
13897;SDS011;7019;50.766;4.474;2023-01-24T12:18:42;22.90;;;17.47;;
13897;SDS011;7019;50.766;4.474;2023-01-24T12:21:33;24.50;;;17.77;;
13897;SDS011;7019;50.766;4.474;2023-01-24T12:24:01;24.13;;;19.37;;
13897;SDS011;7019;50.766;4.474;2023-01-24T12:26:32;24.73;;;19.10;;
13897;SDS011;7019;50.766;4.474;2023-01-24T12:29:03;22.27;;;17.00;;
13897;SDS011;7019;50.766;4.474;2023-01-24T12:31:39;27.80;;;19.60;;
13897;SDS011;7019;50.766;4.474;2023-01-24T12:34:14;23.20;;;19.20;;
13897;SDS011;7019;50.766;4.474;2023-01-24T12:36:58;24.87;;;18.83;;
13897;SDS011;7019;50.766;4.474;2023-01-24T12:39:32;26.63;;;19.83;;
13897;SDS011;7019;50.766;4.474;2023-01-24T12:42:10;21.50;;;18.10;;
13897;SDS011;7019;50.766;4.474;2023-01-24T12:44:41;28.13;;;18.23;;
13897;SDS011;7019;50.766;4.474;2023-01-24T12:47:16;24.20;;;19.77;;
13897;SDS011;7019;50.766;4.474;2023-01-24T12:49:54;22.87;;;16.87;;
13897;SDS011;7019;50.766;4.474;2023-01-24T12:52:30;21.90;;;17.50;;
13897;SDS011;7019;50.766;4.474;2023-01-24T12:55:02;24.20;;;18.20;;
13897;SDS011;7019;50.766;4.474;2023-01-24T12:57:37;22.20;;;17.70;;
13897;SDS011;7019;50.766;4.474;2023-01-24T13:00:12;21.37;;;17.93;;
13897;SDS011;7019;50.766;4.474;2023-01-24T13:05:51;25.70;;;19.47;;
13897;SDS011;7019;50.766;4.474;2023-01-24T13:08:32;28.07;;;20.27;;
13897;SDS011;7019;50.766;4.474;2023-01-24T13:11:19;25.07;;;19.20;;
13897;SDS011;7019;50.766;4.474;2023-01-24T13:13:55;28.10;;;19.60;;
13897;SDS011;7019;50.766;4.474;2023-01-24T13:16:42;27.67;;;19.43;;
13897;SDS011;7019;50.766;4.474;2023-01-24T13:19:33;26.90;;;19.03;;
13897;SDS011;7019;50.766;4.474;2023-01-24T13:22:22;23.77;;;18.90;;
13897;SDS011;7019;50.766;4.474;2023-01-24T13:25:00;25.73;;;19.87;;
13897;SDS011;7019;50.766;4.474;2023-01-24T13:27:45;22.27;;;18.23;;
13897;SDS011;7019;50.766;4.474;2023-01-24T13:30:29;23.80;;;18.47;;
13897;SDS011;7019;50.766;4.474;2023-01-24T13:33:01;25.03;;;19.27;;
13897;SDS011;7019;50.766;4.474;2023-01-24T13:35:30;30.90;;;18.63;;
13897;SDS011;7019;50.766;4.474;2023-01-24T13:37:59;23.40;;;17.93;;
13897;SDS011;7019;50.766;4.474;2023-01-24T13:40:32;23.53;;;18.27;;
13897;SDS011;7019;50.766;4.474;2023-01-24T13:43:01;25.17;;;19.27;;
13897;SDS011;7019;50.766;4.474;2023-01-24T13:45:48;21.57;;;16.70;;
13897;SDS011;7019;50.766;4.474;2023-01-24T13:51:27;22.83;;;18.30;;
13897;SDS011;7019;50.766;4.474;2023-01-24T13:54:01;23.03;;;16.57;;
13897;SDS011;7019;50.766;4.474;2023-01-24T13:56:32;24.80;;;17.13;;
13897;SDS011;7019;50.766;4.474;2023-01-24T13:59:38;22.90;;;17.30;;
13897;SDS011;7019;50.766;4.474;2023-01-24T14:04:52;23.33;;;16.17;;
13897;SDS011;7019;50.766;4.474;2023-01-24T14:07:26;23.20;;;18.00;;
13897;SDS011;7019;50.766;4.474;2023-01-24T14:09:57;25.63;;;19.23;;
13897;SDS011;7019;50.766;4.474;2023-01-24T14:12:27;22.23;;;16.63;;
13897;SDS011;7019;50.766;4.474;2023-01-24T14:15:00;24.40;;;18.77;;
13897;SDS011;7019;50.766;4.474;2023-01-24T14:17:48;25.87;;;17.33;;
13897;SDS011;7019;50.766;4.474;2023-01-24T14:20:19;23.47;;;17.57;;
13897;SDS011;7019;50.766;4.474;2023-01-24T14:22:50;21.07;;;17.33;;
13897;SDS011;7019;50.766;4.474;2023-01-24T14:25:34;24.87;;;18.63;;
13897;SDS011;7019;50.766;4.474;2023-01-24T14:28:15;21.87;;;15.97;;
13897;SDS011;7019;50.766;4.474;2023-01-24T14:30:48;22.27;;;16.43;;
13897;SDS011;7019;50.766;4.474;2023-01-24T14:33:21;24.23;;;16.77;;
13897;SDS011;7019;50.766;4.474;2023-01-24T14:35:57;21.30;;;17.33;;
13897;SDS011;7019;50.766;4.474;2023-01-24T14:38:27;25.60;;;18.53;;
13897;SDS011;7019;50.766;4.474;2023-01-24T14:40:55;23.43;;;17.37;;
13897;SDS011;7019;50.766;4.474;2023-01-24T14:43:26;23.33;;;16.93;;
13897;SDS011;7019;50.766;4.474;2023-01-24T14:46:10;22.00;;;15.97;;
13897;SDS011;7019;50.766;4.474;2023-01-24T14:48:39;22.17;;;17.47;;
13897;SDS011;7019;50.766;4.474;2023-01-24T14:51:06;23.23;;;17.23;;
13897;SDS011;7019;50.766;4.474;2023-01-24T14:53:41;25.87;;;18.17;;
13897;SDS011;7019;50.766;4.474;2023-01-24T14:56:13;21.67;;;17.57;;
13897;SDS011;7019;50.766;4.474;2023-01-24T14:58:42;27.00;;;19.60;;
13897;SDS011;7019;50.766;4.474;2023-01-24T15:01:21;24.70;;;17.23;;
13897;SDS011;7019;50.766;4.474;2023-01-24T15:03:51;23.73;;;17.63;;
13897;SDS011;7019;50.766;4.474;2023-01-24T15:06:22;24.23;;;17.00;;
13897;SDS011;7019;50.766;4.474;2023-01-24T15:08:53;25.53;;;17.97;;
13897;SDS011;7019;50.766;4.474;2023-01-24T15:11:21;22.23;;;17.13;;
13897;SDS011;7019;50.766;4.474;2023-01-24T15:13:56;19.00;;;15.03;;